createdAt,value
2019-05-22T00:01:28.877Z,3.07
2019-05-22T00:06:39.373Z,2.70
2019-05-22T00:11:46.054Z,2.20
2019-05-22T00:16:51.401Z,2.07
2019-05-22T00:22:03.024Z,1.90
2019-05-22T00:27:09.523Z,2.17
2019-05-22T00:32:16.330Z,2.10
2019-05-22T00:37:21.023Z,2.87
2019-05-22T00:42:27.451Z,3.50
2019-05-22T00:47:33.915Z,3.80
2019-05-22T00:52:47.067Z,3.10
2019-05-22T00:58:04.698Z,3.03
2019-05-22T01:03:16.543Z,3.17
2019-05-22T01:08:24.338Z,2.40
2019-05-22T01:13:33.198Z,2.30
2019-05-22T01:18:39.230Z,2.60
2019-05-22T01:23:46.098Z,2.80
2019-05-22T01:28:51.241Z,2.60
2019-05-22T01:34:02.618Z,2.33
2019-05-22T01:39:24.228Z,2.63
2019-05-22T01:44:30.339Z,3.20
2019-05-22T01:49:38.880Z,2.80
2019-05-22T01:54:45.475Z,2.37
2019-05-22T01:59:51.588Z,2.43
2019-05-22T02:04:58.367Z,2.60
2019-05-22T02:10:04.195Z,2.00
2019-05-22T02:15:11.063Z,2.00
2019-05-22T02:20:17.878Z,2.10
2019-05-22T02:25:24.324Z,2.40
2019-05-22T02:30:30.882Z,2.70
2019-05-22T02:35:37.006Z,2.00
2019-05-22T02:40:44.191Z,2.10
2019-05-22T02:45:49.915Z,1.70
2019-05-22T02:50:54.979Z,1.30
2019-05-22T02:56:00.288Z,1.10
2019-05-22T03:01:06.553Z,1.43
2019-05-22T03:06:13.886Z,1.00
2019-05-22T03:11:18.943Z,1.20
2019-05-22T03:16:26.604Z,1.00
2019-05-22T03:21:31.472Z,1.30
2019-05-22T03:26:48.302Z,1.63
2019-05-22T03:31:54.008Z,2.30
2019-05-22T03:36:59.029Z,2.77
2019-05-22T03:42:04.448Z,2.97
2019-05-22T03:47:11.303Z,3.87
2019-05-22T03:52:17.316Z,3.53
2019-05-22T03:57:23.024Z,3.77
2019-05-22T04:02:28.663Z,3.13
2019-05-22T04:07:34.954Z,3.23
2019-05-22T04:12:40.308Z,3.47
2019-05-22T04:17:48.141Z,2.80
2019-05-22T04:22:58.041Z,2.62
2019-05-22T04:28:02.817Z,2.27
2019-05-22T04:33:08.291Z,2.40
2019-05-22T04:38:13.328Z,1.73
2019-05-22T04:43:21.387Z,2.15
2019-05-22T04:48:29.459Z,1.80
2019-05-22T04:53:34.365Z,1.07
2019-05-22T04:58:39.629Z,1.00
2019-05-22T05:03:44.338Z,0.70
2019-05-22T05:08:49.649Z,0.70
2019-05-22T05:13:54.957Z,0.80
2019-05-22T05:19:00.859Z,0.90
2019-05-22T05:24:05.771Z,0.90
2019-05-22T05:29:22.263Z,1.20
2019-05-22T05:34:36.915Z,1.10
2019-05-22T05:40:19.577Z,1.20
2019-05-22T05:45:25.031Z,0.93
2019-05-22T05:50:39.409Z,0.90
2019-05-22T05:55:53.308Z,0.77
2019-05-22T06:01:03.098Z,1.10
2019-05-22T06:06:25.214Z,0.83
2019-05-22T06:11:49.482Z,0.80
2019-05-22T06:17:12.491Z,0.80
2019-05-22T06:22:17.387Z,0.63
2019-05-22T06:27:30.773Z,0.60
2019-05-22T06:33:03.254Z,1.00
2019-05-22T06:38:20.759Z,1.47
2019-05-22T06:43:53.324Z,1.63
2019-05-22T06:49:02.243Z,0.90
2019-05-22T06:54:07.104Z,0.50
2019-05-22T06:59:13.031Z,0.50
2019-05-22T07:04:18.795Z,0.80
2019-05-22T07:09:24.692Z,1.30
2019-05-22T07:14:31.762Z,1.50
2019-05-22T07:19:37.246Z,1.70
2019-05-22T07:24:42.170Z,1.52
2019-05-22T07:29:47.083Z,1.30
2019-05-22T07:34:52.376Z,1.10
2019-05-22T07:39:57.504Z,1.30
2019-05-22T07:45:02.500Z,1.90
2019-05-22T07:50:07.940Z,1.73
2019-05-22T07:55:14.882Z,1.87
2019-05-22T08:00:21.822Z,1.83
2019-05-22T08:05:28.389Z,1.67
2019-05-22T08:10:34.729Z,1.10
2019-05-22T08:15:39.899Z,0.97
2019-05-22T08:20:45.185Z,0.80
2019-05-22T08:25:50.221Z,1.17
2019-05-22T08:30:55.703Z,1.13
2019-05-22T08:36:01.431Z,0.90
2019-05-22T08:41:10.041Z,0.80
2019-05-22T08:46:15.021Z,0.70
2019-05-22T08:51:20.148Z,0.63
2019-05-22T08:56:25.619Z,0.70
2019-05-22T09:01:32.159Z,0.80
2019-05-22T09:06:37.221Z,1.05
2019-05-22T09:11:42.042Z,1.13
2019-05-22T09:16:47.821Z,0.60
2019-05-22T09:21:52.801Z,0.77
2019-05-22T09:26:58.023Z,0.60
2019-05-22T09:32:04.065Z,0.95
2019-05-22T09:37:09.718Z,0.78
2019-05-22T09:42:15.487Z,0.62
2019-05-22T09:47:25.571Z,0.60
2019-05-22T09:52:31.551Z,0.40
2019-05-22T09:57:36.823Z,0.47
2019-05-22T10:02:42.323Z,0.70
2019-05-22T10:07:59.254Z,0.90
2019-05-22T10:12:55.143Z,0.60
2019-05-22T10:18:01.074Z,0.80
2019-05-22T10:23:15.315Z,0.82
2019-05-22T10:28:15.730Z,0.83
2019-05-22T10:33:20.599Z,0.50
2019-05-22T10:38:25.730Z,0.70
2019-05-22T10:43:31.960Z,0.60
2019-05-22T10:48:40.214Z,0.60
2019-05-22T10:53:44.502Z,0.90
2019-05-22T10:58:49.524Z,0.78
2019-05-22T11:03:54.991Z,0.73
2019-05-22T11:09:00.142Z,0.60
2019-05-22T11:14:09.513Z,0.40
2019-05-22T11:19:14.228Z,0.67
2019-05-22T11:24:19.622Z,1.07
2019-05-22T11:29:24.723Z,0.60
2019-05-22T11:34:29.902Z,0.67
2019-05-22T11:39:39.240Z,1.20
2019-05-22T11:44:42.262Z,1.20
2019-05-22T11:49:47.208Z,1.00
2019-05-22T11:54:52.218Z,0.70
2019-05-22T11:59:57.022Z,0.50
2019-05-22T12:05:02.932Z,0.63
2019-05-22T12:10:09.179Z,0.50
2019-05-22T12:15:16.121Z,0.77
2019-05-22T12:20:23.050Z,1.23
2019-05-22T12:25:29.031Z,0.40
2019-05-22T12:30:34.135Z,0.40
2019-05-22T12:35:41.539Z,1.17
2019-05-22T12:40:46.751Z,0.80
2019-05-22T12:45:51.831Z,1.05
2019-05-22T12:50:58.273Z,0.60
2019-05-22T12:56:03.801Z,0.60
2019-05-22T13:01:09.106Z,0.97
2019-05-22T13:06:14.628Z,0.60
2019-05-22T13:11:19.969Z,5.00
2019-05-22T13:16:25.086Z,0.40
2019-05-22T13:21:34.302Z,0.60
2019-05-22T13:26:40.877Z,0.73
2019-05-22T13:31:48.574Z,0.40
2019-05-22T13:36:56.807Z,0.60
2019-05-22T13:42:00.718Z,0.82
2019-05-22T13:47:07.753Z,2.45
2019-05-22T13:52:13.001Z,1.00
2019-05-22T13:57:18.162Z,0.43
2019-05-22T14:02:27.164Z,0.90
2019-05-22T14:07:31.381Z,0.60
2019-05-22T14:12:37.236Z,0.80
2019-05-22T14:17:42.790Z,0.60
2019-05-22T14:22:47.832Z,1.37
2019-05-22T14:27:52.921Z,0.67
2019-05-22T14:33:04.398Z,0.83
2019-05-22T14:38:08.567Z,1.10
2019-05-22T14:43:13.582Z,1.00
2019-05-22T14:48:18.865Z,1.10
2019-05-22T14:53:23.764Z,1.00
2019-05-22T14:58:29.262Z,1.10
2019-05-22T15:03:34.357Z,1.00
2019-05-22T15:08:39.353Z,1.20
2019-05-22T15:13:44.599Z,1.03
2019-05-22T15:18:49.794Z,1.00
2019-05-22T15:23:55.391Z,0.80
2019-05-22T15:29:00.556Z,1.73
2019-05-22T15:34:06.154Z,1.10
2019-05-22T15:39:12.703Z,0.87
2019-05-22T15:44:19.595Z,1.00
2019-05-22T15:49:26.339Z,0.70
2019-05-22T15:54:33.983Z,0.80
2019-05-22T15:59:40.570Z,0.70
2019-05-22T16:04:45.441Z,1.05
2019-05-22T16:09:52.063Z,1.53
2019-05-22T16:14:59.227Z,0.80
2019-05-22T16:20:05.241Z,0.60
2019-05-22T16:25:11.073Z,1.07
2019-05-22T16:30:16.603Z,0.80
2019-05-22T16:35:22.132Z,0.80
2019-05-22T16:40:28.148Z,0.80
2019-05-22T16:45:35.004Z,0.87
2019-05-22T16:50:42.934Z,0.80
2019-05-22T16:55:48.358Z,0.93
2019-05-22T17:00:56.991Z,0.70
2019-05-22T17:06:02.139Z,0.80
2019-05-22T17:11:08.234Z,0.70
2019-05-22T17:16:13.629Z,0.80
2019-05-22T17:21:19.451Z,1.57
2019-05-22T17:26:24.583Z,1.00
2019-05-22T17:31:30.259Z,0.60
2019-05-22T17:36:35.958Z,0.67
2019-05-22T17:41:42.739Z,0.70
2019-05-22T17:46:48.802Z,0.80
2019-05-22T17:51:54.098Z,0.90
2019-05-22T17:56:59.230Z,0.97
2019-05-22T18:02:05.744Z,0.93
2019-05-22T18:07:10.837Z,0.87
2019-05-22T18:12:16.190Z,0.80
2019-05-22T18:17:21.708Z,0.80
2019-05-22T18:22:27.151Z,1.20
2019-05-22T18:27:32.690Z,0.83
2019-05-22T18:32:42.046Z,1.10
2019-05-22T18:37:47.147Z,0.68
2019-05-22T18:42:52.406Z,1.00
2019-05-22T18:47:57.644Z,1.07
2019-05-22T18:53:03.425Z,1.00
2019-05-22T18:58:08.435Z,1.30
2019-05-22T19:03:14.459Z,1.20
2019-05-22T19:08:19.835Z,1.20
2019-05-22T19:13:24.823Z,1.07
2019-05-22T19:18:29.734Z,0.90
2019-05-22T19:23:34.890Z,1.47
2019-05-22T19:28:44.074Z,1.10
2019-05-22T19:33:47.252Z,0.97
2019-05-22T19:38:52.582Z,1.23
2019-05-22T19:43:57.766Z,1.27
2019-05-22T19:49:03.088Z,6.63
2019-05-22T19:54:08.459Z,1.57
2019-05-22T19:59:13.766Z,0.93
2019-05-22T20:04:19.215Z,2.70
2019-05-22T20:09:25.675Z,3.80
2019-05-22T20:14:31.383Z,1.40
2019-05-22T20:19:36.547Z,2.23
2019-05-22T20:24:41.742Z,1.70
2019-05-22T20:29:47.575Z,0.90
2019-05-22T20:34:52.663Z,1.03
2019-05-22T20:39:57.506Z,0.77
2019-05-22T20:45:05.202Z,2.87
2019-05-22T20:50:11.565Z,2.23
2019-05-22T20:55:16.555Z,3.53
2019-05-22T21:00:22.225Z,1.00
2019-05-22T21:05:27.166Z,0.97
2019-05-22T21:10:33.667Z,0.98
2019-05-22T21:15:38.983Z,1.30
2019-05-22T21:20:54.565Z,1.70
2019-05-22T21:25:52.535Z,1.30
2019-05-22T21:30:57.922Z,1.10
2019-05-22T21:36:03.695Z,1.10
2019-05-22T21:41:09.706Z,1.23
2019-05-22T21:46:16.026Z,1.30
2019-05-22T21:51:22.023Z,1.60
2019-05-22T21:56:27.725Z,1.63
2019-05-22T22:01:36.507Z,1.50
2019-05-22T22:06:42.224Z,1.30
2019-05-22T22:11:47.558Z,1.50
2019-05-22T22:16:52.319Z,1.50
2019-05-22T22:21:57.294Z,1.60
2019-05-22T22:27:02.765Z,1.83
2019-05-22T22:32:11.385Z,1.50
2019-05-22T22:37:17.772Z,1.50
2019-05-22T22:42:26.725Z,1.30
2019-05-22T22:47:42.268Z,1.70
2019-05-22T22:52:48.786Z,1.37
2019-05-22T22:57:53.600Z,1.50
2019-05-22T23:03:00.245Z,0.97
2019-05-22T23:08:06.149Z,1.30
2019-05-22T23:13:11.205Z,1.80
2019-05-22T23:18:33.165Z,1.23
2019-05-22T23:23:36.230Z,1.43
2019-05-22T23:28:44.003Z,0.90
2019-05-22T23:33:50.088Z,0.90
2019-05-22T23:38:55.472Z,1.10
2019-05-22T23:44:01.006Z,0.80
2019-05-22T23:49:06.637Z,1.12
2019-05-22T23:54:13.031Z,2.77
2019-05-22T23:59:19.728Z,2.87
